Arklow Rogue — EIGD — position and weather

sailwx.info

Track history (hours):
 
Tides and Currents Weather Stations Pressure Air Temp Water Temp Dewpoint Dewpoint Depression Visibility Wind Speed Wind Dir Waves Ship Positions

Arklow Rogue

Last reported at 2015-Jul-02 00:22 UTC. Time now 2015-Jul-02 21:29 UTC.
Position N 45°29' W 000°56'.

Length 90 m; draft 3.4 m.

Type: Cargo ship. MMSI: 250000960.

Date/timePositionNaut miles runAvg speedWind from/ knotsBaromVisibWave heightAir tempDewpointWater temp
2015-Jul-02 00:22N 45°29' W 000°56'20 9.9
2015-Jul-01 22:19N 45°35' W 001°24'3 3.5
2015-Jul-01 21:31N 45°33' W 001°26'5 4.8
2015-Jul-01 20:32N 45°37' W 001°30'14 9.8
2015-Jul-01 19:08N 45°51' W 001°33'610.3
2015-Jul-01 18:33N 45°56' W 001°36'1110.6
2015-Jul-01 17:32N 46°07' W 001°40'1010.5
2015-Jul-01 16:33N 46°17' W 001°42'1110.9
2015-Jul-01 15:33N 46°27' W 001°47'3 2.6
2015-Jul-01 14:31N 46°30' W 001°47'0 0.0
2015-Jul-01 13:31N 46°30' W 001°47'0 0.0
2015-Jul-01 12:31N 46°30' W 001°47'0 0.0
2015-Jul-01 11:31N 46°30' W 001°47'0 0.0
2015-Jul-01 10:31N 46°30' W 001°47'0 0.0
2015-Jul-01 09:31N 46°30' W 001°47'0 0.0
2015-Jul-01 08:31N 46°30' W 001°47'0 0.0
2015-Jul-01 07:31N 46°30' W 001°47'0 0.0
2015-Jul-01 06:31N 46°30' W 001°47'0 0.0
2015-Jul-01 03:28N 46°30' W 001°47'0 0.0
2015-Jul-01 02:28N 46°30' W 001°47'0 0.0
2015-Jun-30 23:25N 46°30' W 001°47'0 0.0
2015-Jun-30 22:31N 46°30' W 001°47'0 0.0
2015-Jun-30 21:22N 46°30' W 001°47'0 0.0
2015-Jun-30 18:10N 46°30' W 001°47'0 0.0
2015-Jun-30 17:31N 46°30' W 001°47'0 0.0
2015-Jun-30 16:31N 46°30' W 001°47'0 0.0
2015-Jun-30 15:31N 46°30' W 001°47'0 0.0
2015-Jun-30 14:31N 46°30' W 001°47'0 0.0
2015-Jun-30 13:31N 46°30' W 001°47'0 0.0
2015-Jun-30 12:31N 46°30' W 001°47'0 0.0
2015-Jun-30 11:31N 46°30' W 001°47'0 0.0
2015-Jun-30 10:31N 46°30' W 001°47'0 0.0
2015-Jun-30 09:31N 46°30' W 001°47'0 0.0
2015-Jun-30 08:31N 46°30' W 001°47'0 0.0
2015-Jun-30 07:31N 46°30' W 001°47'0 0.0
2015-Jun-30 06:31N 46°30' W 001°47'0 0.0
2015-Jun-30 05:31N 46°30' W 001°47'0 0.0
2015-Jun-30 04:31N 46°30' W 001°47'0 0.0
2015-Jun-30 03:31N 46°30' W 001°47'0 0.0
2015-Jun-30 02:31N 46°30' W 001°47'0 0.0
2015-Jun-30 01:31N 46°30' W 001°47'0 0.0
2015-Jun-30 00:31N 46°30' W 001°47'0 0.0
2015-Jun-29 23:31N 46°30' W 001°47'0 0.0
2015-Jun-29 22:31N 46°30' W 001°47'0 0.0
2015-Jun-29 21:31N 46°30' W 001°47'0 0.0
2015-Jun-29 20:31N 46°30' W 001°47'0 0.0
2015-Jun-29 19:31N 46°30' W 001°47'0 0.0
2015-Jun-29 18:31N 46°30' W 001°47'0 0.0
2015-Jun-29 17:31N 46°30' W 001°47'0 0.0
2015-Jun-29 16:31N 46°30' W 001°47'0 0.0
2015-Jun-29 15:31N 46°30' W 001°47'0 0.0
2015-Jun-29 14:31N 46°30' W 001°47'0 0.0
2015-Jun-29 13:31N 46°30' W 001°47'0 0.0
2015-Jun-29 12:28N 46°30' W 001°47'0 0.0
2015-Jun-29 11:31N 46°30' W 001°47'0 0.0
2015-Jun-29 10:31N 46°30' W 001°47'0 0.0
2015-Jun-29 09:31N 46°30' W 001°47'0 0.0
2015-Jun-29 08:28N 46°30' W 001°47'0 0.0
2015-Jun-29 07:28N 46°30' W 001°47'0 0.0
2015-Jun-29 06:31N 46°30' W 001°47'0 0.0
2015-Jun-29 05:31N 46°30' W 001°47'0 0.0
2015-Jun-29 04:31N 46°30' W 001°47'0 0.0
2015-Jun-29 03:31N 46°30' W 001°47'0 0.0
2015-Jun-29 02:31N 46°30' W 001°47'0 0.0
2015-Jun-29 01:31N 46°30' W 001°47'0 0.0
2015-Jun-29 00:31N 46°30' W 001°47'0 0.0
2015-Jun-28 23:31N 46°30' W 001°47'0 0.0
2015-Jun-28 22:31N 46°30' W 001°47'0 0.0
2015-Jun-28 21:31N 46°30' W 001°47'0 0.0
2015-Jun-28 20:31N 46°30' W 001°47'0 0.0
2015-Jun-28 19:31N 46°30' W 001°47'0 0.0
2015-Jun-28 18:31N 46°30' W 001°47'0 0.0
2015-Jun-28 17:31N 46°30' W 001°47'0 0.0
2015-Jun-28 16:31N 46°30' W 001°47'0 0.0
2015-Jun-28 15:31N 46°30' W 001°47'0 0.0
2015-Jun-28 14:31N 46°30' W 001°47'0 0.0
2015-Jun-28 13:31N 46°30' W 001°47'2 1.6
2015-Jun-28 12:33N 46°28' W 001°47'7 7.1
2015-Jun-28 11:33N 46°22' W 001°50'8 7.9
2015-Jun-28 10:33N 46°14' W 001°54'8 8.4
2015-Jun-28 09:34N 46°06' W 001°57'9 9.4
2015-Jun-28 08:33N 45°57' W 002°01'1010.3
2015-Jun-28 07:33N 45°47' W 002°06'1111.2
2015-Jun-28 06:33N 45°36' W 002°10'1211.9
2015-Jun-28 05:33N 45°25' W 002°15'1111.4
2015-Jun-28 04:33N 45°14' W 002°20'1111.3
2015-Jun-28 03:33N 45°03' W 002°24'1411.6
2015-Jun-28 02:21N 44°50' W 002°30'1012.0
2015-Jun-28 01:33N 44°41' W 002°34'1211.6
2015-Jun-28 00:33N 44°30' W 002°39'  
2015-Jun-22 17:33N 43°22' W 003°04'2 0.8
2015-Jun-22 14:31N 43°23' W 003°08'0 0.1
2015-Jun-22 13:19N 43°23' W 003°08'7 0.8
2015-Jun-22 04:13N 43°30' W 003°09'710.5
2015-Jun-22 03:32N 43°37' W 003°12'1010.5
2015-Jun-22 02:33N 43°46' W 003°17'2110.5
2015-Jun-22 00:33N 44°06' W 003°27'  
Track history (hours):
 
Tides and Currents Weather Stations Pressure Air Temp Water Temp Dewpoint Dewpoint Depression Visibility Wind Speed Wind Dir Waves Ship Positions

Arklow Rogue

Last reported at 2015-Jul-02 00:22 UTC. Time now 2015-Jul-02 21:29 UTC.
Position N 45°29' W 000°56'.

Length 90 m; draft 3.4 m.

Type: Cargo ship. MMSI: 250000960.

Date/timePositionNaut miles runAvg speedWind from/ knotsBaromVisibWave heightAir tempDewpointWater temp
2015-Jul-02 00:22N 45°29' W 000°56'20 9.9
2015-Jul-01 22:19N 45°35' W 001°24'3 3.5
2015-Jul-01 21:31N 45°33' W 001°26'5 4.8
2015-Jul-01 20:32N 45°37' W 001°30'14 9.8
2015-Jul-01 19:08N 45°51' W 001°33'610.3
2015-Jul-01 18:33N 45°56' W 001°36'1110.6
2015-Jul-01 17:32N 46°07' W 001°40'1010.5
2015-Jul-01 16:33N 46°17' W 001°42'1110.9
2015-Jul-01 15:33N 46°27' W 001°47'3 2.6
2015-Jul-01 14:31N 46°30' W 001°47'0 0.0
2015-Jul-01 13:31N 46°30' W 001°47'0 0.0
2015-Jul-01 12:31N 46°30' W 001°47'0 0.0
2015-Jul-01 11:31N 46°30' W 001°47'0 0.0
2015-Jul-01 10:31N 46°30' W 001°47'0 0.0
2015-Jul-01 09:31N 46°30' W 001°47'0 0.0
2015-Jul-01 08:31N 46°30' W 001°47'0 0.0
2015-Jul-01 07:31N 46°30' W 001°47'0 0.0
2015-Jul-01 06:31N 46°30' W 001°47'0 0.0
2015-Jul-01 03:28N 46°30' W 001°47'0 0.0
2015-Jul-01 02:28N 46°30' W 001°47'0 0.0
2015-Jun-30 23:25N 46°30' W 001°47'0 0.0
2015-Jun-30 22:31N 46°30' W 001°47'0 0.0
2015-Jun-30 21:22N 46°30' W 001°47'0 0.0
2015-Jun-30 18:10N 46°30' W 001°47'0 0.0
2015-Jun-30 17:31N 46°30' W 001°47'0 0.0
2015-Jun-30 16:31N 46°30' W 001°47'0 0.0
2015-Jun-30 15:31N 46°30' W 001°47'0 0.0
2015-Jun-30 14:31N 46°30' W 001°47'0 0.0
2015-Jun-30 13:31N 46°30' W 001°47'0 0.0
2015-Jun-30 12:31N 46°30' W 001°47'0 0.0
2015-Jun-30 11:31N 46°30' W 001°47'0 0.0
2015-Jun-30 10:31N 46°30' W 001°47'0 0.0
2015-Jun-30 09:31N 46°30' W 001°47'0 0.0
2015-Jun-30 08:31N 46°30' W 001°47'0 0.0
2015-Jun-30 07:31N 46°30' W 001°47'0 0.0
2015-Jun-30 06:31N 46°30' W 001°47'0 0.0
2015-Jun-30 05:31N 46°30' W 001°47'0 0.0
2015-Jun-30 04:31N 46°30' W 001°47'0 0.0
2015-Jun-30 03:31N 46°30' W 001°47'0 0.0
2015-Jun-30 02:31N 46°30' W 001°47'0 0.0
2015-Jun-30 01:31N 46°30' W 001°47'0 0.0
2015-Jun-30 00:31N 46°30' W 001°47'0 0.0
2015-Jun-29 23:31N 46°30' W 001°47'0 0.0
2015-Jun-29 22:31N 46°30' W 001°47'0 0.0
2015-Jun-29 21:31N 46°30' W 001°47'0 0.0
2015-Jun-29 20:31N 46°30' W 001°47'0 0.0
2015-Jun-29 19:31N 46°30' W 001°47'0 0.0
2015-Jun-29 18:31N 46°30' W 001°47'0 0.0
2015-Jun-29 17:31N 46°30' W 001°47'0 0.0
2015-Jun-29 16:31N 46°30' W 001°47'0 0.0
2015-Jun-29 15:31N 46°30' W 001°47'0 0.0
2015-Jun-29 14:31N 46°30' W 001°47'0 0.0
2015-Jun-29 13:31N 46°30' W 001°47'0 0.0
2015-Jun-29 12:28N 46°30' W 001°47'0 0.0
2015-Jun-29 11:31N 46°30' W 001°47'0 0.0
2015-Jun-29 10:31N 46°30' W 001°47'0 0.0
2015-Jun-29 09:31N 46°30' W 001°47'0 0.0
2015-Jun-29 08:28N 46°30' W 001°47'0 0.0
2015-Jun-29 07:28N 46°30' W 001°47'0 0.0
2015-Jun-29 06:31N 46°30' W 001°47'0 0.0
2015-Jun-29 05:31N 46°30' W 001°47'0 0.0
2015-Jun-29 04:31N 46°30' W 001°47'0 0.0
2015-Jun-29 03:31N 46°30' W 001°47'0 0.0
2015-Jun-29 02:31N 46°30' W 001°47'0 0.0
2015-Jun-29 01:31N 46°30' W 001°47'0 0.0
2015-Jun-29 00:31N 46°30' W 001°47'0 0.0
2015-Jun-28 23:31N 46°30' W 001°47'0 0.0
2015-Jun-28 22:31N 46°30' W 001°47'0 0.0
2015-Jun-28 21:31N 46°30' W 001°47'0 0.0
2015-Jun-28 20:31N 46°30' W 001°47'0 0.0
2015-Jun-28 19:31N 46°30' W 001°47'0 0.0
2015-Jun-28 18:31N 46°30' W 001°47'0 0.0
2015-Jun-28 17:31N 46°30' W 001°47'0 0.0
2015-Jun-28 16:31N 46°30' W 001°47'0 0.0
2015-Jun-28 15:31N 46°30' W 001°47'0 0.0
2015-Jun-28 14:31N 46°30' W 001°47'0 0.0
2015-Jun-28 13:31N 46°30' W 001°47'2 1.6
2015-Jun-28 12:33N 46°28' W 001°47'7 7.1
2015-Jun-28 11:33N 46°22' W 001°50'8 7.9
2015-Jun-28 10:33N 46°14' W 001°54'8 8.4
2015-Jun-28 09:34N 46°06' W 001°57'9 9.4
2015-Jun-28 08:33N 45°57' W 002°01'1010.3
2015-Jun-28 07:33N 45°47' W 002°06'1111.2
2015-Jun-28 06:33N 45°36' W 002°10'1211.9
2015-Jun-28 05:33N 45°25' W 002°15'1111.4
2015-Jun-28 04:33N 45°14' W 002°20'1111.3
2015-Jun-28 03:33N 45°03' W 002°24'1411.6
2015-Jun-28 02:21N 44°50' W 002°30'1012.0
2015-Jun-28 01:33N 44°41' W 002°34'1211.6
2015-Jun-28 00:33N 44°30' W 002°39'  
2015-Jun-22 17:33N 43°22' W 003°04'2 0.8
2015-Jun-22 14:31N 43°23' W 003°08'0 0.1
2015-Jun-22 13:19N 43°23' W 003°08'7 0.8
2015-Jun-22 04:13N 43°30' W 003°09'710.5
2015-Jun-22 03:32N 43°37' W 003°12'1010.5
2015-Jun-22 02:33N 43°46' W 003°17'2110.5
2015-Jun-22 00:33N 44°06' W 003°27'  

Dump ship's entire track history